Accueil
METAR-TAF:

METAR-TAF

Aéroports :

RAF

Holbeach, Angleterre

latitude: 52-52N, longitude: 000-09E, altitude: 3 m

Observation

Le bulletin a été fait il y a 4 heures et 19 minutes, à 15:50 UTC
Vent 9 kt de sud/sud-est
Température 4°C
Humidité 87%
Pression 1017 hPa
Visibilité 10 km ou plus
Quelques nuages à une hauteur de 2000 ft

METAR: EGYH 211550Z 15009KT 9999 FEW020 04/02 Q1017 BLU

Heure: 20:09 (20:09 UTC)


TAF: absent

Observations et prévisions météorologiques de plus de 4000 aéroports (messages METAR et TAF).

Les stations disponibles sont représentées par des disques jaunes et rouges sur la carte.

Passer la souris dessus pour voir le nom de la station.

Cliquer dessus pour voir les observations et prévisions météorologiques.

Pour changer de carte: cliquez sur les boutons verts avec une croix noire pour zoomer, sur le bouton vert avec un tiret pour effectuer un zoom arrière, ou sur les flèches vertes pour les cartes adjacentes.


METAR-TAF: